TimeEDT,TemperatureF,Dew PointF,Humidity,Sea Level PressureIn,VisibilityMPH,Wind Direction,Wind SpeedMPH,Gust SpeedMPH,PrecipitationIn,Events,Conditions,WindDirDegrees,DateUTC
12:53 AM,52.0,39.9,63,30.09,10.0,Calm,Calm,-,N/A,,Clear,0,2013-06-04 04:53:00
1:53 AM,50.0,37.9,63,30.10,10.0,Calm,Calm,-,N/A,,Clear,0,2013-06-04 05:53:00
2:53 AM,45.0,39.9,82,30.10,10.0,Calm,Calm,-,N/A,,Clear,0,2013-06-04 06:53:00
3:53 AM,43.0,39.0,86,30.10,10.0,Calm,Calm,-,N/A,,Clear,0,2013-06-04 07:53:00
4:53 AM,42.1,39.0,89,30.12,10.0,NNW,3.5,-,N/A,,Clear,340,2013-06-04 08:53:00
5:53 AM,39.9,37.9,93,30.13,10.0,Calm,Calm,-,N/A,,Clear,0,2013-06-04 09:53:00
6:53 AM,39.9,39.0,97,30.15,8.0,Calm,Calm,-,N/A,,Clear,0,2013-06-04 10:53:00
7:53 AM,48.0,42.1,80,30.16,10.0,Calm,Calm,-,N/A,,Clear,0,2013-06-04 11:53:00
8:53 AM,55.0,43.0,64,30.17,10.0,ENE,3.5,-,N/A,,Clear,70,2013-06-04 12:53:00
9:53 AM,60.1,44.1,55,30.18,10.0,Calm,Calm,-,N/A,,Clear,0,2013-06-04 13:53:00
10:53 AM,64.9,44.1,47,30.16,10.0,Variable,3.5,-,N/A,,Clear,0,2013-06-04 14:53:00
11:53 AM,66.9,43.0,42,30.15,10.0,Variable,4.6,-,N/A,,Clear,0,2013-06-04 15:53:00
12:53 PM,68.0,42.1,39,30.15,10.0,Calm,Calm,-,N/A,,Clear,0,2013-06-04 16:53:00
1:53 PM,70.0,43.0,38,30.14,10.0,Calm,Calm,-,N/A,,Clear,0,2013-06-04 17:53:00
2:53 PM,72.0,42.1,34,30.13,10.0,NE,4.6,-,N/A,,Clear,50,2013-06-04 18:53:00
3:53 PM,73.0,43.0,34,30.12,10.0,North,4.6,-,N/A,,Clear,350,2013-06-04 19:53:00
4:53 PM,73.0,44.1,35,30.11,10.0,NNE,4.6,-,N/A,,Clear,20,2013-06-04 20:53:00
5:53 PM,73.9,44.1,34,30.11,10.0,North,5.8,-,N/A,,Clear,360,2013-06-04 21:53:00
6:53 PM,73.0,46.0,38,30.11,10.0,NNW,6.9,-,N/A,,Clear,340,2013-06-04 22:53:00
7:53 PM,71.1,45.0,39,30.11,10.0,NNE,4.6,-,N/A,,Clear,30,2013-06-04 23:53:00
8:53 PM,66.9,46.0,47,30.11,10.0,Calm,Calm,-,N/A,,Clear,0,2013-06-05 00:53:00
9:53 PM,64.0,46.9,54,30.11,10.0,Calm,Calm,-,N/A,,Clear,0,2013-06-05 01:53:00
10:53 PM,60.1,46.9,62,30.12,10.0,North,3.5,-,N/A,,Clear,360,2013-06-05 02:53:00
11:53 PM,59.0,46.0,62,30.13,10.0,North,3.5,-,N/A,,Clear,360,2013-06-05 03:53:00